Terminal Aerodrome Forecast
Issued by NWS Cleveland, OH

Home | Current Version | Previous Version | Text Only | Print | Product List | Glossary Off
Versions: 1 2 3 4 5 6 7 8 9 10 11 12 13 14 15 16 17 18 19 20 21 22 23 24 25

000
FTUS41 KCLE 260200 AAA
TAFCLE
TAF AMD
KCLE 260253Z 2603/2706 03007KT P6SM BKN120
     FM261200 03006KT 4SM -SN OVC025
     FM261400 03008KT 1 1/2SM -SN BR OVC012
     FM262000 01008KT 4SM -SN BR OVC015
     FM270300 36008KT 6SM -SN OVC018=

USA.gov is the U.S. government's official web portal to all federal, state and local government web resources and services.